Time;durP1;ratioP1;P1;durP2;ratioP2;P2;SDS_P1;SDS_P2;PMS_P1;PMS_P2;Temp;Humidity;BMP_temperature;BMP_pressure;BME280_temperature;BME280_humidity;BME280_pressure;Samples;Min_cycle;Max_cycle;Signal;HPM_P1;HPM_P2
2020/12/20 00:00:58;;;;;;;178.57;38.50;;;;;;;1.63;87.77;101386.67;1708251;84;21317;-81
2020/12/20 00:04:05;;;;;;;79.53;35.40;;;;;;;1.65;87.76;101393.73;1708127;84;21270;-80
2020/12/20 00:07:14;;;;;;;98.95;37.83;;;;;;;1.66;87.72;101392.77;1707998;84;21345;-80
2020/12/20 00:10:21;;;;;;;124.65;40.78;;;;;;;1.66;87.76;101383.80;1709017;84;21282;-80
2020/12/20 00:13:27;;;;;;;94.55;35.92;;;;;;;1.66;87.75;101388.71;1708849;84;21302;-80
2020/12/20 00:16:34;;;;;;;153.23;34.15;;;;;;;1.64;87.74;101390.62;1708537;84;21901;-81
2020/12/20 00:19:40;;;;;;;104.12;36.15;;;;;;;1.60;87.74;101382.80;1707103;84;21199;-80
2020/12/20 00:22:39;;;;;;;119.57;37.50;;;;;;;1.59;87.90;101380.59;1722304;81;21204;-81
2020/12/20 00:25:45;;;;;;;81.80;32.67;;;;;;;1.60;88.00;101387.75;1747801;82;21877;-80
2020/12/20 00:28:51;;;;;;;79.15;33.28;;;;;;;1.58;87.98;101385.61;1749103;82;21279;-81
2020/12/20 00:31:57;;;;;;;99.03;35.43;;;;;;;1.58;88.04;101384.73;1749003;82;21823;-79
2020/12/20 00:35:03;;;;;;;71.05;31.37;;;;;;;1.60;88.08;101381.00;1748365;82;21831;-81
2020/12/20 00:38:09;;;;;;;66.25;29.80;;;;;;;1.62;88.08;101381.77;1747662;82;21192;-81
2020/12/20 00:41:19;;;;;;;58.87;27.05;;;;;;;1.63;88.07;101379.45;1749075;82;21216;-81
2020/12/20 00:44:24;;;;;;;70.12;28.27;;;;;;;1.62;87.97;101379.07;1748993;82;21862;-80
2020/12/20 00:47:29;;;;;;;60.05;28.85;;;;;;;1.61;87.85;101385.91;1749023;82;21617;-80
2020/12/20 00:50:34;;;;;;;70.00;27.90;;;;;;;1.60;87.73;101382.80;1747629;82;21342;-80
2020/12/20 00:53:40;;;;;;;67.22;28.10;;;;;;;1.58;87.64;101384.73;1748951;82;21842;-81
2020/12/20 00:56:45;;;;;;;52.10;24.35;;;;;;;1.53;87.43;101385.02;1748949;82;21236;-80
2020/12/20 00:59:49;;;;;;;55.43;25.43;;;;;;;1.51;87.28;101385.60;1749039;82;21212;-80
2020/12/20 01:02:56;;;;;;;55.70;24.63;;;;;;;1.48;87.20;101381.25;1749094;82;21323;-81
2020/12/20 01:06:02;;;;;;;53.85;25.23;;;;;;;1.47;87.11;101384.05;1748138;82;21209;-80
2020/12/20 01:09:09;;;;;;;59.00;24.23;;;;;;;1.49;87.05;101378.06;1748970;82;21811;-80
2020/12/20 01:12:15;;;;;;;71.00;26.80;;;;;;;1.47;87.01;101390.30;1749114;82;21276;-80
2020/12/20 01:15:30;;;;;;;60.38;25.08;;;;;;;1.45;87.04;101384.59;1748240;82;21276;-80
2020/12/20 01:18:35;;;;;;;62.40;26.68;;;;;;;1.44;87.11;101387.78;1747166;82;21196;-80
2020/12/20 01:21:42;;;;;;;53.90;24.43;;;;;;;1.42;87.18;101379.41;1747480;82;21315;-81
2020/12/20 01:24:48;;;;;;;57.23;24.63;;;;;;;1.45;87.31;101383.25;1749838;82;21831;-81
2020/12/20 01:27:52;;;;;;;64.62;27.55;;;;;;;1.45;87.36;101381.91;1751778;82;21704;-81
2020/12/20 01:31:00;;;;;;;64.67;26.75;;;;;;;1.47;87.29;101385.39;1751541;82;21381;-81
2020/12/20 01:34:07;;;;;;;52.50;24.85;;;;;;;1.48;87.25;101385.29;1750213;82;21287;-81
2020/12/20 01:37:12;;;;;;;51.80;25.27;;;;;;;1.45;87.05;101384.11;1751931;82;21338;-81
2020/12/20 01:40:18;;;;;;;47.67;21.10;;;;;;;1.40;87.02;101378.61;1752118;82;21291;-80
2020/12/20 01:43:24;;;;;;;59.65;25.40;;;;;;;1.38;87.08;101386.80;1752270;82;21283;-81
2020/12/20 01:46:23;;;;;;;51.90;23.50;;;;;;;1.39;87.11;101389.88;1751230;82;22431;-80
2020/12/20 01:49:29;;;;;;;49.27;23.18;;;;;;;1.43;87.17;101394.62;1752409;82;21279;-80
2020/12/20 01:52:35;;;;;;;47.88;23.50;;;;;;;1.49;87.11;101396.94;1750815;82;21881;-81
2020/12/20 01:55:43;;;;;;;43.90;21.95;;;;;;;1.52;86.91;101392.72;1751951;82;21894;-80
2020/12/20 01:58:53;;;;;;;48.52;24.57;;;;;;;1.56;86.67;101390.72;1752094;82;21593;-80
2020/12/20 02:02:01;;;;;;;51.25;25.15;;;;;;;1.53;86.30;101390.41;1752408;82;21767;-80
2020/12/20 02:05:07;;;;;;;46.73;23.45;;;;;;;1.50;86.24;101389.23;1752087;82;21823;-80
2020/12/20 02:08:14;;;;;;;48.10;24.67;;;;;;;1.53;86.20;101394.45;1752319;82;21235;-80
2020/12/20 02:11:23;;;;;;;44.50;23.42;;;;;;;1.56;86.11;101390.72;1752337;82;21846;-80
2020/12/20 02:14:31;;;;;;;46.08;23.20;;;;;;;1.57;85.94;101391.09;1752459;82;21302;-80
2020/12/20 02:17:37;;;;;;;54.50;24.92;;;;;;;1.58;85.85;101388.30;1750814;82;21311;-80
2020/12/20 02:20:46;;;;;;;53.58;25.32;;;;;;;1.60;85.81;101395.84;1752163;82;21770;-81
2020/12/20 02:23:53;;;;;;;51.73;24.57;;;;;;;1.62;85.75;101395.73;1752454;82;21161;-80
2020/12/20 02:27:02;;;;;;;42.33;21.62;;;;;;;1.64;85.75;101395.15;1751503;82;21259;-80
2020/12/20 02:30:12;;;;;;;48.50;24.85;;;;;;;1.68;85.77;101397.56;1751985;82;21287;-80
2020/12/20 02:33:18;;;;;;;47.85;23.50;;;;;;;1.69;85.52;101402.48;1752256;82;21291;-80
2020/12/20 02:36:23;;;;;;;54.13;24.75;;;;;;;1.69;85.47;101405.17;1751718;82;21331;-80
2020/12/20 02:39:32;;;;;;;45.80;21.23;;;;;;;1.70;85.39;101406.45;1750643;82;21561;-80
2020/12/20 02:42:38;;;;;;;56.30;25.92;;;;;;;1.69;85.25;101412.78;1752209;82;21307;-80
2020/12/20 02:45:45;;;;;;;55.70;24.82;;;;;;;1.64;85.22;101417.59;1752186;82;21180;-80
2020/12/20 02:48:52;;;;;;;62.40;26.07;;;;;;;1.63;85.37;101413.16;1752523;82;21386;-80
2020/12/20 02:51:58;;;;;;;54.27;23.15;;;;;;;1.63;85.38;101418.55;1752390;82;21347;-80
2020/12/20 02:55:05;;;;;;;46.92;21.15;;;;;;;1.61;85.29;101417.80;1752546;82;21783;-81
2020/12/20 02:58:13;;;;;;;55.50;24.47;;;;;;;1.56;85.31;101416.34;1751192;82;21803;-80
2020/12/20 03:01:28;;;;;;;50.58;23.85;;;;;;;1.50;85.38;101422.45;1750815;82;21350;-80
2020/12/20 03:04:35;;;;;;;52.20;25.02;;;;;;;1.51;85.62;101422.00;1752301;82;21815;-80
2020/12/20 03:07:42;;;;;;;64.80;26.02;;;;;;;1.53;85.72;101433.07;1727184;82;21346;-80
2020/12/20 03:10:50;;;;;;;54.38;23.52;;;;;;;1.58;85.75;101430.10;1752346;82;21192;-81
2020/12/20 03:13:56;;;;;;;51.00;24.18;;;;;;;1.62;85.72;101428.09;1752235;82;21184;-80
2020/12/20 03:17:04;;;;;;;55.28;23.98;;;;;;;1.66;85.62;101431.88;1751724;82;21181;-80
2020/12/20 03:20:11;;;;;;;52.67;23.35;;;;;;;1.69;85.40;101433.50;1752168;82;21228;-80
2020/12/20 03:23:17;;;;;;;51.05;24.52;;;;;;;1.70;85.32;101428.03;1751628;82;21326;-80
2020/12/20 03:26:25;;;;;;;61.90;25.57;;;;;;;1.75;85.27;101434.02;1749206;82;21291;-81
2020/12/20 03:29:36;;;;;;;49.05;24.00;;;;;;;1.82;85.21;101433.64;1752074;82;21354;-80
2020/12/20 03:32:59;;;;;;;52.23;25.00;;;;;;;1.89;85.03;101439.06;1751106;82;21299;-81
2020/12/20 03:36:15;;;;;;;51.42;22.73;;;;;;;1.95;84.74;101444.08;1750798;81;21918;-81
2020/12/20 03:39:21;;;;;;;50.05;23.10;;;;;;;1.99;84.43;101440.23;1750854;82;21319;-80
2020/12/20 03:42:28;;;;;;;52.85;23.70;;;;;;;1.99;84.08;101446.50;1752350;82;21153;-80
2020/12/20 03:45:33;;;;;;;47.15;22.67;;;;;;;1.98;83.88;101447.47;1750907;82;21764;-80
2020/12/20 03:48:39;;;;;;;50.38;24.98;;;;;;;2.01;83.83;101458.05;1751023;82;21228;-80
2020/12/20 03:51:46;;;;;;;54.60;23.90;;;;;;;2.00;83.61;101454.97;1750957;82;21306;-81
2020/12/20 03:54:54;;;;;;;58.58;24.10;;;;;;;2.02;83.64;101458.91;1750060;82;21324;-81
2020/12/20 03:57:59;;;;;;;52.83;23.35;;;;;;;2.05;83.54;101457.39;1751675;82;21291;-81
2020/12/20 04:01:06;;;;;;;63.87;26.55;;;;;;;2.07;83.37;101459.98;1752191;82;21180;-81
2020/12/20 04:04:11;;;;;;;58.10;25.50;;;;;;;2.05;83.21;101466.35;1752287;82;21279;-80
2020/12/20 04:07:17;;;;;;;54.58;24.72;;;;;;;2.05;83.20;101466.84;1752147;82;21295;-80
2020/12/20 04:10:26;;;;;;;53.78;23.95;;;;;;;2.08;83.15;101464.45;1752358;82;21603;-80
2020/12/20 04:13:34;;;;;;;57.00;22.13;;;;;;;2.11;83.04;101466.45;1752393;82;21169;-80
2020/12/20 04:16:38;;;;;;;52.20;24.07;;;;;;;2.15;83.00;101473.89;1752389;82;21286;-81
2020/12/20 04:19:44;;;;;;;50.83;23.32;;;;;;;2.18;82.90;101469.17;1752261;82;21212;-79
2020/12/20 04:22:51;;;;;;;52.67;24.10;;;;;;;2.22;82.62;101474.78;1750199;82;21307;-80
2020/12/20 04:26:05;;;;;;;49.48;23.18;;;;;;;2.19;82.31;101474.95;1752162;82;21826;-81
2020/12/20 04:29:27;;;;;;;53.42;23.90;;;;;;;2.17;82.25;101477.38;1763599;81;21238;-81
2020/12/20 04:32:34;;;;;;;49.90;22.00;;;;;;;2.17;82.34;101472.84;1765178;81;21279;-80
2020/12/20 04:35:40;;;;;;;50.92;21.55;;;;;;;2.16;82.21;101465.69;1765083;81;21295;-80
2020/12/20 04:38:47;;;;;;;49.20;22.95;;;;;;;2.13;82.10;101471.30;1764366;81;21318;-80
2020/12/20 04:41:52;;;;;;;47.30;23.18;;;;;;;2.09;82.06;101471.09;1765231;81;21719;-81
2020/12/20 04:44:58;;;;;;;44.40;18.48;;;;;;;2.05;82.01;101477.15;1764014;81;21786;-80
2020/12/20 04:48:06;;;;;;;51.92;23.05;;;;;;;1.98;82.01;101503.27;1764813;81;21763;-81
2020/12/20 04:51:17;;;;;;;45.70;21.23;;;;;;;1.86;82.36;101518.34;1763468;81;21230;-80
2020/12/20 04:54:24;;;;;;;48.85;21.68;;;;;;;1.92;82.84;101519.80;1765063;81;21239;-81
2020/12/20 04:57:34;;;;;;;47.00;20.20;;;;;;;2.00;82.95;101525.63;1765099;81;21350;-80
2020/12/20 05:00:41;;;;;;;43.33;20.45;;;;;;;2.04;82.68;101523.13;1763878;81;21807;-80
2020/12/20 05:03:46;;;;;;;47.45;22.15;;;;;;;2.03;82.53;101527.66;1763601;81;21314;-81
2020/12/20 05:06:52;;;;;;;49.15;22.05;;;;;;;2.05;82.42;101528.43;1763570;81;21299;-80
2020/12/20 05:10:07;;;;;;;46.83;22.70;;;;;;;2.07;82.38;101530.16;1765059;81;21227;-81
2020/12/20 05:13:14;;;;;;;44.50;20.45;;;;;;;2.10;82.33;101526.80;1765253;81;21830;-80
2020/12/20 05:16:40;;;;;;;46.08;21.45;;;;;;;2.12;82.18;101534.34;1765157;81;21310;-81
2020/12/20 05:19:46;;;;;;;49.20;22.00;;;;;;;2.12;82.11;101533.45;1763958;81;21358;-81
2020/12/20 05:22:52;;;;;;;48.75;22.35;;;;;;;2.11;81.97;101529.88;1765015;81;21294;-80
2020/12/20 05:25:58;;;;;;;51.08;21.85;;;;;;;2.08;81.82;101534.14;1763755;81;21160;-81
2020/12/20 05:29:21;;;;;;;47.73;21.07;;;;;;;2.02;81.77;101523.23;1752288;81;22580;-81
2020/12/20 05:32:37;;;;;;;51.30;22.02;;;;;;;2.02;81.81;101530.44;1748787;82;21415;-80
2020/12/20 05:35:43;;;;;;;44.53;21.48;;;;;;;2.01;81.82;101527.35;1747518;82;21212;-80
2020/12/20 05:38:50;;;;;;;48.17;21.45;;;;;;;1.98;81.86;101536.52;1748306;82;21847;-81
2020/12/20 05:41:56;;;;;;;43.23;20.62;;;;;;;1.97;81.89;101541.98;1747159;82;21342;-81
2020/12/20 05:45:19;;;;;;;45.03;20.90;;;;;;;1.92;81.92;101538.69;1748613;82;21299;-80
2020/12/20 05:48:28;;;;;;;48.87;21.50;;;;;;;1.86;81.95;101556.13;1748895;82;21196;-81
2020/12/20 05:51:36;;;;;;;47.73;20.45;;;;;;;1.85;82.24;101545.43;1747679;82;21212;-81
2020/12/20 05:54:47;;;;;;;48.38;21.52;;;;;;;1.84;82.32;101554.00;1748984;82;21367;-81
2020/12/20 05:57:52;;;;;;;44.42;19.98;;;;;;;1.83;82.38;101550.89;1749067;82;21193;-80
2020/12/20 06:00:57;;;;;;;49.58;22.48;;;;;;;1.83;82.45;101551.38;1749017;82;21288;-81
2020/12/20 06:04:04;;;;;;;48.40;22.93;;;;;;;1.84;82.43;101554.48;1748994;82;21326;-81
2020/12/20 06:07:12;;;;;;;47.75;20.97;;;;;;;1.82;82.37;101555.91;1748867;82;21189;-81
2020/12/20 06:10:18;;;;;;;42.88;21.23;;;;;;;1.84;82.43;101559.89;1747905;82;21385;-80
2020/12/20 06:13:27;;;;;;;42.62;20.45;;;;;;;1.85;82.54;101562.97;1749158;82;21271;-80
2020/12/20 06:16:33;;;;;;;48.83;24.23;;;;;;;1.87;82.52;101565.08;1749285;82;21666;-80
2020/12/20 06:19:43;;;;;;;44.70;22.98;;;;;;;1.89;82.50;101563.18;1748982;82;21168;-80
2020/12/20 06:22:48;;;;;;;47.90;22.90;;;;;;;1.90;82.44;101571.17;1749025;82;21815;-81
2020/12/20 06:25:54;;;;;;;49.10;23.40;;;;;;;1.92;82.42;101573.28;1747814;82;21299;-80
2020/12/20 06:29:01;;;;;;;50.50;24.87;;;;;;;1.96;82.44;101581.59;1748915;82;21204;-80
2020/12/20 06:32:06;;;;;;;60.15;28.02;;;;;;;2.01;82.39;101577.28;1749084;82;21362;-80
2020/12/20 06:35:35;;;;;;;54.42;24.43;;;;;;;2.06;82.29;101579.23;1749654;82;21295;-80
2020/12/20 06:38:40;;;;;;;71.57;31.85;;;;;;;2.09;82.03;101581.75;1749416;82;21346;-80
2020/12/20 06:41:47;;;;;;;69.90;31.42;;;;;;;2.12;81.89;101581.58;1749667;82;21442;-80
2020/12/20 06:44:53;;;;;;;60.48;27.73;;;;;;;2.13;81.73;101575.22;1749086;82;21295;-80
2020/12/20 06:48:00;;;;;;;46.20;23.55;;;;;;;2.15;81.74;101573.77;1736012;82;21358;-81
2020/12/20 06:51:06;;;;;;;46.05;21.35;;;;;;;2.18;81.69;101574.46;1747249;82;21930;-81
2020/12/20 06:54:11;;;;;;;47.40;22.07;;;;;;;2.18;81.55;101564.14;1748488;82;21303;-81
2020/12/20 06:57:18;;;;;;;52.13;24.07;;;;;;;2.15;81.46;101561.62;1747512;82;21255;-80
2020/12/20 07:00:24;;;;;;;43.58;20.92;;;;;;;2.16;81.28;101565.56;1748151;82;21295;-81
2020/12/20 07:03:37;;;;;;;53.20;24.07;;;;;;;2.18;81.04;101563.66;1748995;82;21280;-81
2020/12/20 07:06:44;;;;;;;54.60;26.97;;;;;;;2.18;80.88;101558.27;1749173;82;21949;-81
2020/12/20 07:09:50;;;;;;;67.40;32.40;;;;;;;2.21;80.82;101561.24;1748824;82;21374;-81
2020/12/20 07:12:55;;;;;;;49.75;25.60;;;;;;;2.22;80.82;101570.62;1748772;82;21180;-81
2020/12/20 07:16:01;;;;;;;48.30;23.12;;;;;;;2.26;80.79;101570.83;1748985;82;21303;-80
2020/12/20 07:19:12;;;;;;;44.45;23.05;;;;;;;2.29;80.61;101574.67;1749031;82;21331;-81
2020/12/20 07:22:19;;;;;;;48.55;23.45;;;;;;;2.32;80.44;101574.12;1749113;82;21180;-81
2020/12/20 07:25:25;;;;;;;47.20;22.55;;;;;;;2.29;80.08;101582.77;1749021;82;21176;-81
2020/12/20 07:28:30;;;;;;;48.33;24.25;;;;;;;2.23;79.89;101587.69;1748956;82;21287;-81
2020/12/20 07:31:37;;;;;;;50.63;24.30;;;;;;;2.16;79.67;101579.55;1747466;82;21200;-81
2020/12/20 07:34:44;;;;;;;44.15;22.75;;;;;;;2.13;80.00;101581.97;1748912;82;21825;-81
2020/12/20 07:38:00;;;;;;;46.65;22.65;;;;;;;2.13;80.06;101581.97;1748230;82;21310;-81
2020/12/20 07:41:06;;;;;;;46.23;23.57;;;;;;;2.14;80.04;101579.65;1748412;82;21283;-81
2020/12/20 07:44:17;;;;;;;52.23;25.52;;;;;;;2.17;79.92;101579.95;1747617;82;21169;-81
2020/12/20 07:47:22;;;;;;;55.30;26.02;;;;;;;2.20;79.57;101586.02;1749170;82;21168;-81
2020/12/20 07:50:31;;;;;;;47.00;21.87;;;;;;;2.20;79.46;101590.07;1748752;82;21192;-81
2020/12/20 07:53:36;;;;;;;47.50;22.67;;;;;;;2.22;79.61;101593.56;1749166;82;21565;-81
2020/12/20 07:56:46;;;;;;;46.60;23.80;;;;;;;2.22;79.55;101598.10;1748964;82;21342;-81
2020/12/20 07:59:51;;;;;;;44.20;23.30;;;;;;;2.16;79.46;101597.95;1749071;82;21834;-80
2020/12/20 08:02:59;;;;;;;46.15;22.77;;;;;;;2.16;79.25;101598.44;1749152;82;21169;-80
2020/12/20 08:06:16;;;;;;;45.60;22.87;;;;;;;2.16;79.04;101611.45;1749122;82;21228;-81
2020/12/20 08:09:30;;;;;;;33.80;18.00;;;;;;;2.15;79.00;101607.02;1749074;82;21118;-81
2020/12/20 08:12:36;;;;;;;35.68;17.95;;;;;;;2.17;78.59;101602.91;1748559;82;21514;-81
2020/12/20 08:15:42;;;;;;;33.98;17.32;;;;;;;2.16;78.23;101610.59;1749128;82;21173;-81
2020/12/20 08:18:51;;;;;;;35.38;19.07;;;;;;;2.12;78.19;101605.88;1749098;82;21867;-81
2020/12/20 08:22:21;;;;;;;37.30;17.70;;;;;;;2.04;77.72;101594.17;1735746;82;21180;-81
2020/12/20 08:25:26;;;;;;;32.38;15.63;;;;;;;1.98;77.60;101589.63;1749018;82;21237;-81
2020/12/20 08:28:31;;;;;;;32.10;17.35;;;;;;;1.97;77.32;101583.81;1747884;82;21215;-80
2020/12/20 08:31:39;;;;;;;34.08;17.48;;;;;;;1.93;77.22;101576.41;1748451;82;21738;-81
2020/12/20 08:34:44;;;;;;;28.45;16.45;;;;;;;1.92;77.46;101584.56;1749072;82;21221;-80
2020/12/20 08:37:53;;;;;;;26.40;14.10;;;;;;;1.90;77.66;101586.50;1747691;82;21343;-81
2020/12/20 08:40:59;;;;;;;31.87;16.75;;;;;;;1.86;77.74;101585.80;1747700;82;21168;-81
2020/12/20 08:44:18;;;;;;;29.45;15.70;;;;;;;1.84;77.80;101589.56;1747794;82;21306;-81
2020/12/20 08:47:26;;;;;;;24.80;14.23;;;;;;;1.83;77.48;101591.36;1749626;82;21299;-81
2020/12/20 08:50:36;;;;;;;22.10;12.75;;;;;;;1.80;77.08;101583.47;1749168;82;21176;-81
2020/12/20 08:53:41;;;;;;;23.10;10.70;;;;;;;1.73;76.90;101582.06;1749066;82;21819;-81
2020/12/20 08:57:03;;;;;;;23.40;11.85;;;;;;;1.67;76.81;101578.39;1747634;82;21180;-81
2020/12/20 09:00:19;;;;;;;27.42;14.30;;;;;;;1.61;76.88;101577.40;1748845;82;21327;-81
2020/12/20 09:03:25;;;;;;;27.52;14.60;;;;;;;1.60;76.61;101574.28;1748926;82;21228;-81
2020/12/20 09:06:31;;;;;;;32.30;16.85;;;;;;;1.71;76.63;101574.08;1735899;82;21283;-80
2020/12/20 09:09:38;;;;;;;22.58;13.58;;;;;;;1.91;76.42;101571.56;1748962;82;21177;-81
2020/12/20 09:12:46;;;;;;;17.60;11.22;;;;;;;2.07;76.04;101568.84;1747516;82;21319;-81
2020/12/20 09:15:52;;;;;;;29.60;16.73;;;;;;;2.14;75.44;101578.30;1747733;82;21298;-81
2020/12/20 09:18:58;;;;;;;22.02;12.65;;;;;;;2.13;75.19;101586.50;1748510;82;21216;-81
2020/12/20 09:22:04;;;;;;;26.20;13.95;;;;;;;2.14;74.75;101581.48;1748821;82;21295;-81
2020/12/20 09:25:11;;;;;;;28.98;15.63;;;;;;;2.11;74.42;101579.81;1749075;82;21185;-81
2020/12/20 09:28:21;;;;;;;33.35;16.12;;;;;;;2.05;74.88;101577.49;1748843;82;21295;-81
2020/12/20 09:31:27;;;;;;;35.23;17.30;;;;;;;2.08;75.04;101576.45;1749166;82;21291;-81
2020/12/20 09:34:41;;;;;;;23.60;14.83;;;;;;;2.14;75.19;101570.69;1748178;82;21327;-80
2020/12/20 09:37:49;;;;;;;32.17;14.50;;;;;;;2.20;74.99;101573.88;1748472;82;21212;-81
2020/12/20 09:41:05;;;;;;;32.08;15.45;;;;;;;2.23;74.96;101573.70;1749026;82;21287;-81
2020/12/20 09:44:10;;;;;;;42.98;19.25;;;;;;;2.26;74.73;101575.36;1747649;82;21200;-81
2020/12/20 09:47:18;;;;;;;59.42;23.80;;;;;;;2.29;74.46;101570.62;1749037;82;21903;-81
2020/12/20 09:50:22;;;;;;;40.90;18.62;;;;;;;2.36;74.46;101569.79;1747911;82;21323;-81
2020/12/20 09:53:28;;;;;;;52.98;34.45;;;;;;;2.48;74.34;101562.76;1748008;82;21414;-81
2020/12/20 09:56:34;;;;;;;25.23;15.58;;;;;;;2.58;74.03;101560.36;1748635;82;21311;-81
2020/12/20 09:59:40;;;;;;;21.87;12.37;;;;;;;2.61;73.44;101562.39;1748719;82;21696;-81
2020/12/20 10:02:46;;;;;;;43.55;16.87;;;;;;;2.56;73.26;101561.81;1748460;82;21193;-80
2020/12/20 10:05:52;;;;;;;32.35;16.15;;;;;;;2.55;73.30;101559.59;1747684;82;21346;-80
2020/12/20 10:08:59;;;;;;;35.20;17.20;;;;;;;2.58;73.22;101559.00;1749179;82;21295;-81
2020/12/20 10:12:05;;;;;;;37.90;17.70;;;;;;;2.57;73.16;101551.39;1749092;82;21295;-81
2020/12/20 10:15:11;;;;;;;90.55;50.98;;;;;;;2.56;72.87;101552.36;1749047;82;21295;-80
2020/12/20 10:18:17;;;;;;;102.35;61.40;;;;;;;2.54;73.16;101551.56;1748863;82;21811;-81
2020/12/20 10:21:24;;;;;;;41.13;23.65;;;;;;;2.57;73.33;101555.44;1748989;82;21287;-81
2020/12/20 10:24:32;;;;;;;54.98;25.62;;;;;;;2.61;73.48;101543.48;1749030;82;21185;-81
2020/12/20 10:27:38;;;;;;;43.42;22.87;;;;;;;2.68;73.63;101540.80;1749112;82;21716;-81
2020/12/20 10:30:43;;;;;;;48.10;23.45;;;;;;;2.78;73.78;101542.45;1749120;82;21338;-81
2020/12/20 10:33:49;;;;;;;46.15;24.98;;;;;;;2.84;73.33;101537.13;1747949;82;21347;-80
2020/12/20 10:36:58;;;;;;;44.60;21.42;;;;;;;2.87;73.27;101531.06;1748765;82;21326;-81
2020/12/20 10:40:02;;;;;;;38.88;19.25;;;;;;;2.89;73.27;101533.16;1749073;82;21287;-80
2020/12/20 10:43:08;;;;;;;45.67;21.50;;;;;;;2.89;72.92;101534.52;1748613;82;21287;-81
2020/12/20 10:46:14;;;;;;;40.48;22.07;;;;;;;2.88;73.08;101530.09;1748998;82;21299;-81
2020/12/20 10:49:20;;;;;;;51.02;26.27;;;;;;;2.86;73.11;101533.35;1749072;82;22496;-81
2020/12/20 10:52:26;;;;;;;46.77;25.27;;;;;;;2.87;73.25;101539.63;1748772;82;21834;-80
2020/12/20 10:55:32;;;;;;;64.35;29.63;;;;;;;2.83;73.08;101538.11;1749009;82;21323;-80
2020/12/20 10:58:38;;;;;;;52.48;25.40;;;;;;;2.82;73.36;101535.86;1749328;82;21288;-81
2020/12/20 11:01:44;;;;;;;47.05;23.50;;;;;;;2.83;73.57;101535.41;1749085;82;21295;-80
2020/12/20 11:04:49;;;;;;;52.62;23.40;;;;;;;2.78;73.78;101532.50;1747775;82;21196;-81
2020/12/20 11:07:56;;;;;;;51.85;25.10;;;;;;;2.75;73.76;101528.63;1749093;82;21291;-81
2020/12/20 11:11:02;;;;;;;61.53;34.13;;;;;;;2.71;73.76;101530.27;1749392;82;21247;-81
2020/12/20 11:14:08;;;;;;;300.22;145.47;;;;;;;2.70;73.81;101529.41;1748645;82;21216;-81
2020/12/20 11:17:13;;;;;;;189.60;111.97;;;;;;;2.71;73.88;101537.02;1749336;82;21744;-81
2020/12/20 11:20:18;;;;;;;69.82;35.63;;;;;;;2.71;73.91;101531.63;1748893;82;21195;-80
2020/12/20 11:23:22;;;;;;;171.07;72.17;;;;;;;2.71;74.13;101529.78;1749008;82;21288;-81
2020/12/20 11:26:30;;;;;;;115.65;53.02;;;;;;;2.70;74.02;101536.16;1748954;82;21752;-81
2020/12/20 11:29:39;;;;;;;73.52;36.88;;;;;;;2.72;74.04;101536.92;1749100;82;22578;-81
2020/12/20 11:32:44;;;;;;;61.75;32.67;;;;;;;2.76;74.21;101542.52;1749096;82;21311;-81
2020/12/20 11:35:50;;;;;;;65.90;35.33;;;;;;;2.79;74.05;101538.77;1750170;82;21334;-81
2020/12/20 11:38:57;;;;;;;55.83;31.45;;;;;;;2.80;74.00;101546.77;1750943;82;21902;-81
2020/12/20 11:42:02;;;;;;;52.65;27.70;;;;;;;2.79;74.04;101536.94;1751611;82;21701;-80
2020/12/20 11:45:08;;;;;;;55.50;30.10;;;;;;;2.77;74.07;101543.39;1750795;82;21866;-80
2020/12/20 11:48:14;;;;;;;50.17;26.68;;;;;;;2.73;74.02;101549.48;1752299;82;21192;-81
2020/12/20 11:51:20;;;;;;;58.17;30.05;;;;;;;2.67;74.14;101548.50;1752522;82;21799;-81
2020/12/20 11:54:26;;;;;;;55.20;31.77;;;;;;;2.62;74.40;101551.10;1751638;82;21322;-80
2020/12/20 11:57:32;;;;;;;63.30;34.83;;;;;;;2.61;74.64;101554.29;1751591;82;21823;-81
2020/12/20 12:00:38;;;;;;;70.60;37.13;;;;;;;2.59;74.68;101558.94;1750803;82;21220;-80
2020/12/20 12:03:45;;;;;;;62.60;33.18;;;;;;;2.56;74.75;101555.92;1740931;82;21302;-81
2020/12/20 12:06:54;;;;;;;61.10;34.38;;;;;;;2.57;74.75;101554.09;1707617;84;21206;-81
2020/12/20 12:10:01;;;;;;;50.08;29.52;;;;;;;2.58;74.92;101557.17;1706609;83;21217;-81
2020/12/20 12:13:09;;;;;;;58.50;28.15;;;;;;;2.61;75.02;101560.17;1705936;84;21337;-81
2020/12/20 12:16:14;;;;;;;58.50;28.92;;;;;;;2.60;75.06;101561.15;1708165;84;21349;-81
2020/12/20 12:19:20;;;;;;;51.15;26.10;;;;;;;2.60;74.95;101563.36;1686651;84;21873;-81
2020/12/20 12:22:26;;;;;;;54.75;27.20;;;;;;;2.60;74.97;101567.42;1707291;84;21321;-81
2020/12/20 12:25:31;;;;;;;60.33;27.98;;;;;;;2.58;74.91;101567.97;1706639;84;21199;-81
2020/12/20 12:28:37;;;;;;;54.67;24.18;;;;;;;2.52;74.87;101565.17;1708041;84;21770;-81
2020/12/20 12:31:44;;;;;;;57.98;29.30;;;;;;;2.48;74.96;101570.86;1707866;84;21207;-80
2020/12/20 12:34:49;;;;;;;48.98;24.47;;;;;;;2.42;75.24;101569.41;1706707;84;21407;-81
2020/12/20 12:37:54;;;;;;;54.35;24.07;;;;;;;2.42;75.44;101569.89;1707859;84;21316;-80
2020/12/20 12:41:00;;;;;;;49.33;26.70;;;;;;;2.39;75.56;101574.12;1752642;82;21224;-81
2020/12/20 12:44:07;;;;;;;61.13;27.50;;;;;;;2.36;75.80;101577.89;1752790;82;21802;-81
2020/12/20 12:47:13;;;;;;;54.63;28.92;;;;;;;2.34;75.95;101580.28;1751326;82;21196;-81
2020/12/20 12:50:18;;;;;;;56.28;29.67;;;;;;;2.34;75.85;101581.14;1751347;82;21290;-80
2020/12/20 12:53:25;;;;;;;60.65;28.55;;;;;;;2.36;75.94;101583.77;1752877;82;21296;-80
2020/12/20 12:56:31;;;;;;;61.73;31.05;;;;;;;2.37;76.04;101589.07;1751434;82;21334;-80
2020/12/20 12:59:37;;;;;;;60.58;32.38;;;;;;;2.37;76.13;101586.86;1751457;82;21308;-81
2020/12/20 13:02:41;;;;;;;57.78;31.55;;;;;;;2.38;76.21;101584.54;1753383;82;21270;-80
2020/12/20 13:05:48;;;;;;;58.25;30.60;;;;;;;2.39;76.18;101586.27;1752576;82;21314;-80
2020/12/20 13:08:54;;;;;;;59.80;31.37;;;;;;;2.38;76.21;101589.45;1753337;82;21335;-81
2020/12/20 13:12:04;;;;;;;56.83;30.43;;;;;;;2.35;76.33;101587.41;1751373;81;21188;-80
2020/12/20 13:15:11;;;;;;;47.20;24.55;;;;;;;2.32;76.45;101590.31;1686492;84;21285;-80
2020/12/20 13:18:17;;;;;;;46.05;25.50;;;;;;;2.28;76.41;101594.54;1752670;82;21374;-80
2020/12/20 13:21:28;;;;;;;61.23;30.97;;;;;;;2.20;76.44;101596.82;1751580;82;21307;-80
2020/12/20 13:24:34;;;;;;;60.05;29.07;;;;;;;2.13;76.65;101598.16;1752658;82;21347;-81
2020/12/20 13:27:41;;;;;;;57.27;30.05;;;;;;;2.08;77.02;101609.71;1752778;82;21736;-80
2020/12/20 13:30:47;;;;;;;50.95;28.38;;;;;;;2.04;77.44;101604.97;1752898;82;21802;-80
2020/12/20 13:33:57;;;;;;;57.95;29.45;;;;;;;2.04;77.68;101610.36;1752800;82;21310;-81
2020/12/20 13:37:04;;;;;;;51.05;26.70;;;;;;;2.04;77.82;101608.15;1751162;82;21184;-81
2020/12/20 13:40:11;;;;;;;57.13;31.23;;;;;;;2.04;77.92;101607.66;1748331;82;21210;-81
2020/12/20 13:43:17;;;;;;;66.65;36.05;;;;;;;2.02;78.03;101606.90;1707551;84;21808;-81
2020/12/20 13:46:23;;;;;;;66.20;37.53;;;;;;;2.02;78.21;101606.00;1747844;82;21826;-81
2020/12/20 13:49:29;;;;;;;103.75;52.43;;;;;;;2.02;78.33;101612.75;1708107;84;21872;-81
2020/12/20 13:52:36;;;;;;;151.87;85.80;;;;;;;2.01;78.34;101605.13;1706820;84;21388;-81
2020/12/20 13:55:48;;;;;;;66.35;36.93;;;;;;;2.01;78.44;101605.13;1707628;84;21423;-81
2020/12/20 13:58:51;;;;;;;62.27;34.08;;;;;;;2.03;78.57;101606.42;1707908;84;21257;-79
2020/12/20 14:02:12;;;;;;;;;;;;;;;;;;;;;
2020/12/20 14:05:16;;;;;;;50.70;27.27;;;;;;;2.13;78.80;101610.80;1877270;76;22212;-81
2020/12/20 14:08:22;;;;;;;59.45;31.33;;;;;;;2.10;78.78;101609.13;1781587;80;21363;-81
2020/12/20 14:11:31;;;;;;;51.65;28.75;;;;;;;2.07;78.42;101619.23;1813339;79;21787;-81
2020/12/20 14:14:36;;;;;;;44.63;25.45;;;;;;;2.00;78.00;101613.33;1780010;80;21314;-81
2020/12/20 14:17:42;;;;;;;46.83;25.60;;;;;;;1.93;77.92;101622.28;1781475;80;21917;-81
2020/12/20 14:20:49;;;;;;;50.00;26.82;;;;;;;1.87;77.87;101622.61;1781760;80;21196;-80